createdAt,value
2022-09-12T00:00:14.419Z,1.00
2022-09-12T00:01:14.480Z,1.00
2022-09-12T00:02:14.437Z,1.00
2022-09-12T00:03:14.395Z,1.00
2022-09-12T00:04:14.391Z,1.00
2022-09-12T00:05:14.385Z,1.00
2022-09-12T00:06:14.365Z,1.00
2022-09-12T00:07:14.364Z,0.00
2022-09-12T00:08:14.351Z,0.00
2022-09-12T00:09:14.340Z,0.00
2022-09-12T00:10:14.347Z,0.00
2022-09-12T00:11:14.347Z,0.00
2022-09-12T00:12:14.343Z,0.00
2022-09-12T00:13:14.319Z,0.00
2022-09-12T00:14:14.309Z,0.00
2022-09-12T00:15:14.307Z,0.00
2022-09-12T00:16:14.364Z,0.00
2022-09-12T00:17:14.306Z,0.00
2022-09-12T00:18:14.282Z,0.00
2022-09-12T00:19:14.263Z,0.00
2022-09-12T00:20:14.251Z,0.00
2022-09-12T00:21:14.242Z,0.00
2022-09-12T00:22:14.247Z,0.00
2022-09-12T00:23:14.249Z,0.00
2022-09-12T00:24:14.239Z,0.00
2022-09-12T00:25:14.221Z,0.00
2022-09-12T00:26:14.216Z,0.00
2022-09-12T00:27:14.196Z,0.00
2022-09-12T00:28:14.197Z,0.00
2022-09-12T00:29:14.200Z,0.00
2022-09-12T00:30:14.181Z,0.00
2022-09-12T00:31:14.236Z,0.00
2022-09-12T00:32:14.161Z,0.00
2022-09-12T00:33:14.155Z,0.00
2022-09-12T00:34:14.142Z,0.00
2022-09-12T00:35:14.218Z,0.00
2022-09-12T00:36:14.131Z,0.00
2022-09-12T00:37:14.124Z,0.00
2022-09-12T00:38:14.110Z,0.00
2022-09-12T00:39:14.112Z,0.00
2022-09-12T00:40:14.138Z,0.00
2022-09-12T00:41:14.118Z,0.00
2022-09-12T00:42:14.085Z,0.00
2022-09-12T00:43:14.066Z,0.00
2022-09-12T00:44:14.057Z,0.00
2022-09-12T00:45:14.048Z,0.00
2022-09-12T00:46:14.044Z,0.00
2022-09-12T00:47:14.062Z,0.00
2022-09-12T00:48:14.036Z,0.00
2022-09-12T00:49:14.018Z,0.00
2022-09-12T00:50:14.018Z,0.00
2022-09-12T00:51:14.005Z,0.00
2022-09-12T00:52:13.997Z,0.00
2022-09-12T00:53:14.005Z,0.00
2022-09-12T00:54:13.987Z,0.00
2022-09-12T00:55:13.977Z,0.00
2022-09-12T00:56:13.973Z,0.00
2022-09-12T00:57:13.964Z,0.00
2022-09-12T00:58:13.954Z,0.00
2022-09-12T00:59:13.960Z,0.00
2022-09-12T01:00:13.951Z,0.00
2022-09-12T01:01:14.053Z,0.00
2022-09-12T01:02:13.975Z,0.00
2022-09-12T01:03:13.909Z,0.00
2022-09-12T01:04:13.931Z,0.00
2022-09-12T01:05:13.900Z,0.00
2022-09-12T01:06:13.889Z,0.00
2022-09-12T01:07:13.884Z,0.00
2022-09-12T01:08:13.872Z,0.00
2022-09-12T01:09:13.862Z,0.00
2022-09-12T01:10:13.885Z,0.00
2022-09-12T01:11:13.849Z,0.00
2022-09-12T01:12:13.847Z,0.00
2022-09-12T01:13:13.832Z,0.00
2022-09-12T01:14:13.827Z,0.00
2022-09-12T01:15:13.826Z,0.00
2022-09-12T01:16:13.854Z,0.00
2022-09-12T01:17:13.791Z,0.00
2022-09-12T01:18:13.804Z,0.00
2022-09-12T01:19:13.798Z,0.00
2022-09-12T01:20:13.785Z,0.00
2022-09-12T01:21:13.774Z,0.00
2022-09-12T01:22:13.786Z,0.00
2022-09-12T01:23:13.751Z,0.00
2022-09-12T01:24:13.744Z,0.00
2022-09-12T01:25:13.739Z,0.00
2022-09-12T01:26:13.727Z,0.00
2022-09-12T01:27:13.722Z,0.00
2022-09-12T01:28:13.738Z,0.00
2022-09-12T01:29:13.701Z,0.00
2022-09-12T01:30:13.702Z,0.00
2022-09-12T01:31:13.706Z,0.00
2022-09-12T01:32:13.710Z,0.00
2022-09-12T01:33:13.669Z,0.00
2022-09-12T01:34:13.665Z,0.00
2022-09-12T01:35:13.658Z,0.00
2022-09-12T01:36:13.650Z,0.00
2022-09-12T01:37:13.666Z,0.00
2022-09-12T01:38:13.642Z,0.00
2022-09-12T01:39:13.632Z,0.00
2022-09-12T01:40:13.652Z,0.00
2022-09-12T01:41:13.617Z,0.00
2022-09-12T01:42:13.607Z,0.00
2022-09-12T01:43:13.614Z,0.00
2022-09-12T01:44:13.620Z,0.00
2022-09-12T01:45:13.591Z,0.00
2022-09-12T01:46:13.586Z,0.00
2022-09-12T01:47:13.569Z,0.00
2022-09-12T01:48:13.569Z,0.00
2022-09-12T01:49:13.556Z,0.00
2022-09-12T01:50:13.571Z,0.00
2022-09-12T01:51:13.540Z,0.00
2022-09-12T01:52:13.537Z,0.00
2022-09-12T01:53:13.547Z,0.00
2022-09-12T01:54:13.519Z,0.00
2022-09-12T01:55:13.508Z,0.00
2022-09-12T01:56:13.501Z,0.00
2022-09-12T01:57:13.490Z,0.00
2022-09-12T01:58:13.488Z,0.00
2022-09-12T01:59:13.490Z,0.00
2022-09-12T02:00:13.470Z,0.00
2022-09-12T02:01:13.487Z,0.00
2022-09-12T02:02:13.502Z,0.00
2022-09-12T02:03:13.448Z,0.00
2022-09-12T02:04:13.444Z,0.00
2022-09-12T02:05:13.439Z,0.00
2022-09-12T02:06:13.439Z,0.00
2022-09-12T02:07:13.436Z,0.00
2022-09-12T02:08:13.411Z,0.00
2022-09-12T02:09:13.390Z,0.00
2022-09-12T02:10:13.393Z,0.00
2022-09-12T02:11:13.389Z,0.00
2022-09-12T02:12:13.399Z,0.00
2022-09-12T02:13:13.364Z,0.00
2022-09-12T02:14:13.365Z,0.00
2022-09-12T02:15:13.374Z,0.00
2022-09-12T02:16:13.410Z,0.00
2022-09-12T02:17:13.337Z,0.00
2022-09-12T02:18:13.331Z,0.00
2022-09-12T02:19:13.318Z,0.00
2022-09-12T02:20:21.364Z,0.00
2022-09-12T02:21:14.305Z,0.00
2022-09-12T02:22:13.295Z,0.00
2022-09-12T02:23:13.291Z,0.00
2022-09-12T02:24:13.301Z,0.00
2022-09-12T02:25:13.269Z,0.00
2022-09-12T02:26:13.262Z,0.00
2022-09-12T02:27:13.255Z,0.00
2022-09-12T02:28:13.249Z,0.00
2022-09-12T02:29:13.259Z,0.00
2022-09-12T02:30:13.234Z,0.00
2022-09-12T02:31:13.240Z,0.00
2022-09-12T02:32:13.215Z,0.00
2022-09-12T02:33:13.240Z,0.00
2022-09-12T02:34:13.210Z,0.00
2022-09-12T02:35:13.195Z,0.00
2022-09-12T02:36:13.189Z,0.00
2022-09-12T02:37:13.202Z,0.00
2022-09-12T02:38:13.172Z,0.00
2022-09-12T02:39:13.169Z,0.00
2022-09-12T02:40:13.209Z,0.00
2022-09-12T02:41:13.149Z,0.00
2022-09-12T02:42:13.146Z,0.00
2022-09-12T02:43:13.148Z,0.00
2022-09-12T02:44:13.122Z,0.00
2022-09-12T02:45:13.116Z,0.00
2022-09-12T02:46:13.102Z,0.00
2022-09-12T02:47:13.091Z,0.00
2022-09-12T02:48:13.631Z,0.00
2022-09-12T02:49:13.087Z,0.00
2022-09-12T02:50:13.084Z,0.00
2022-09-12T02:51:13.071Z,0.00
2022-09-12T02:52:13.090Z,0.00
2022-09-12T02:53:13.052Z,0.00
2022-09-12T02:54:13.041Z,0.00
2022-09-12T02:55:13.037Z,0.00
2022-09-12T02:56:13.030Z,0.00
2022-09-12T02:57:13.029Z,0.00
2022-09-12T02:58:13.033Z,0.00
2022-09-12T02:59:13.024Z,0.00
2022-09-12T03:00:13.024Z,0.00
2022-09-12T03:01:12.999Z,0.00
2022-09-12T03:02:13.042Z,0.00
2022-09-12T03:03:12.983Z,0.00
2022-09-12T03:04:12.974Z,0.00
2022-09-12T03:05:12.998Z,0.00
2022-09-12T03:06:12.969Z,0.00
2022-09-12T03:07:12.956Z,0.00
2022-09-12T03:08:12.956Z,0.00
2022-09-12T03:09:12.935Z,0.00
2022-09-12T03:10:12.931Z,0.00
2022-09-12T03:11:12.943Z,0.00
2022-09-12T03:12:12.919Z,0.00
2022-09-12T03:13:12.931Z,0.00
2022-09-12T03:14:12.908Z,0.00
2022-09-12T03:15:12.899Z,0.00
2022-09-12T03:16:12.970Z,0.00
2022-09-12T03:17:12.880Z,0.00
2022-09-12T03:18:12.871Z,0.00
2022-09-12T03:19:12.869Z,0.00
2022-09-12T03:20:12.883Z,0.00
2022-09-12T03:21:12.849Z,0.00
2022-09-12T03:22:12.846Z,0.00
2022-09-12T03:23:12.836Z,0.00
2022-09-12T03:24:12.858Z,0.00
2022-09-12T03:25:12.816Z,0.00
2022-09-12T03:26:12.811Z,0.00
2022-09-12T03:27:12.809Z,0.00
2022-09-12T03:28:12.807Z,0.00
2022-09-12T03:29:12.808Z,0.00
2022-09-12T03:30:19.814Z,0.00
2022-09-12T03:31:12.773Z,0.00
2022-09-12T03:32:12.767Z,0.00
2022-09-12T03:33:12.768Z,0.00
2022-09-12T03:34:12.785Z,0.00
2022-09-12T03:35:12.743Z,0.00
2022-09-12T03:36:12.743Z,0.00
2022-09-12T03:37:12.730Z,0.00
2022-09-12T03:38:12.728Z,0.00
2022-09-12T03:39:12.714Z,0.00
2022-09-12T03:40:12.778Z,0.00
2022-09-12T03:41:12.719Z,0.00
2022-09-12T03:42:12.698Z,0.00
2022-09-12T03:43:12.696Z,0.00
2022-09-12T03:44:12.671Z,0.00
2022-09-12T03:45:12.669Z,0.00
2022-09-12T03:46:12.661Z,0.00
2022-09-12T03:47:12.670Z,0.00
2022-09-12T03:48:12.648Z,0.00
2022-09-12T03:49:12.657Z,0.00
2022-09-12T03:50:12.635Z,0.00
2022-09-12T03:51:12.647Z,0.00
2022-09-12T03:52:12.624Z,0.00
2022-09-12T03:53:16.930Z,0.00
2022-09-12T03:54:12.604Z,0.00
2022-09-12T03:55:12.596Z,0.00
2022-09-12T03:56:12.592Z,0.00
2022-09-12T03:57:12.601Z,0.00
2022-09-12T03:58:12.573Z,0.00
2022-09-12T03:59:12.561Z,0.00
2022-09-12T04:00:16.395Z,0.00
2022-09-12T04:01:12.678Z,0.00
2022-09-12T04:02:12.586Z,0.00
2022-09-12T04:03:12.531Z,0.00
2022-09-12T04:04:12.525Z,0.00
2022-09-12T04:05:12.544Z,0.00
2022-09-12T04:06:12.511Z,0.00
2022-09-12T04:07:12.498Z,0.00
2022-09-12T04:08:12.502Z,0.00
2022-09-12T04:09:12.489Z,0.00
2022-09-12T04:10:12.483Z,0.00
2022-09-12T04:11:12.483Z,0.00
2022-09-12T04:12:12.470Z,0.00
2022-09-12T04:13:12.458Z,0.00
2022-09-12T04:14:12.455Z,1.00
2022-09-12T04:15:12.456Z,1.00
2022-09-12T04:16:12.520Z,1.00
2022-09-12T04:17:12.451Z,1.00
2022-09-12T04:18:12.424Z,1.00
2022-09-12T04:19:12.418Z,1.00
2022-09-12T04:20:12.409Z,1.00
2022-09-12T04:21:12.395Z,1.00
2022-09-12T04:22:12.408Z,1.00
2022-09-12T04:23:12.386Z,1.00
2022-09-12T04:24:12.395Z,1.00
2022-09-12T04:25:12.364Z,2.00
2022-09-12T04:26:12.358Z,1.00
2022-09-12T04:27:12.383Z,1.00
2022-09-12T04:28:12.349Z,2.00
2022-09-12T04:29:12.342Z,2.00
2022-09-12T04:30:12.342Z,1.00
2022-09-12T04:31:12.327Z,2.00
2022-09-12T04:32:12.316Z,2.00
2022-09-12T04:33:12.333Z,3.00
2022-09-12T04:34:12.305Z,3.00
2022-09-12T04:35:12.292Z,6.00
2022-09-12T04:36:12.315Z,5.00
2022-09-12T04:37:12.283Z,5.00
2022-09-12T04:38:12.269Z,4.00
2022-09-12T04:39:12.258Z,3.00
2022-09-12T04:40:12.279Z,5.00
2022-09-12T04:41:12.253Z,7.00
2022-09-12T04:42:12.266Z,7.00
2022-09-12T04:43:14.486Z,10.00
2022-09-12T04:44:12.239Z,9.00
2022-09-12T04:45:12.223Z,11.00
2022-09-12T04:46:12.283Z,11.00
2022-09-12T04:47:12.215Z,11.00
2022-09-12T04:48:12.199Z,13.00
2022-09-12T04:49:12.190Z,14.00
2022-09-12T04:50:12.179Z,16.00
2022-09-12T04:51:12.175Z,16.00
2022-09-12T04:52:12.182Z,18.00
2022-09-12T04:53:12.165Z,20.00
2022-09-12T04:54:12.165Z,23.00
2022-09-12T04:55:12.142Z,24.00
2022-09-12T04:56:12.142Z,25.00
2022-09-12T04:57:12.154Z,29.00
2022-09-12T04:58:12.125Z,30.00
2022-09-12T04:59:12.123Z,32.00
2022-09-12T05:00:12.109Z,32.00
2022-09-12T05:01:12.161Z,34.00
2022-09-12T05:02:12.142Z,37.00
2022-09-12T05:03:12.080Z,41.00
2022-09-12T05:04:12.080Z,41.00
2022-09-12T05:05:12.071Z,48.00
2022-09-12T05:06:12.067Z,50.00
2022-09-12T05:07:12.072Z,52.00
2022-09-12T05:08:12.041Z,57.00
2022-09-12T05:09:12.038Z,59.00
2022-09-12T05:10:12.021Z,64.00
2022-09-12T05:11:12.037Z,65.00
2022-09-12T05:12:12.028Z,68.00
2022-09-12T05:13:12.002Z,73.00
2022-09-12T05:14:12.195Z,77.00
2022-09-12T05:15:11.987Z,78.00
2022-09-12T05:16:12.023Z,83.00
2022-09-12T05:17:11.962Z,87.00
2022-09-12T05:18:11.958Z,87.00
2022-09-12T05:19:11.941Z,92.00
2022-09-12T05:20:11.964Z,96.00
2022-09-12T05:21:11.930Z,101.00
2022-09-12T05:22:11.932Z,106.00
2022-09-12T05:23:11.911Z,113.00
2022-09-12T05:24:11.901Z,119.00
2022-09-12T05:25:11.900Z,126.00
2022-09-12T05:26:11.928Z,130.00
2022-09-12T05:27:11.903Z,132.00
2022-09-12T05:28:11.881Z,138.00
2022-09-12T05:29:11.866Z,144.00
2022-09-12T05:30:11.878Z,154.00
2022-09-12T05:31:11.847Z,157.00
2022-09-12T05:32:11.977Z,160.00
2022-09-12T05:33:11.846Z,164.00
2022-09-12T05:34:11.839Z,163.00
2022-09-12T05:35:11.833Z,168.00
2022-09-12T05:36:11.836Z,172.00
2022-09-12T05:37:11.798Z,173.00
2022-09-12T05:38:11.793Z,179.00
2022-09-12T05:39:11.828Z,182.00
2022-09-12T05:40:11.830Z,184.00
2022-09-12T05:41:16.951Z,185.00
2022-09-12T05:42:12.766Z,186.00
2022-09-12T05:43:11.783Z,193.00
2022-09-12T05:44:11.753Z,200.00
2022-09-12T05:45:11.739Z,214.00
2022-09-12T05:46:11.755Z,220.00
2022-09-12T05:47:11.715Z,226.00
2022-09-12T05:48:11.717Z,229.00
2022-09-12T05:49:11.722Z,232.00
2022-09-12T05:50:11.710Z,235.00
2022-09-12T05:51:11.679Z,252.00
2022-09-12T05:52:11.704Z,264.00
2022-09-12T05:53:11.672Z,270.00
2022-09-12T05:54:11.663Z,267.00
2022-09-12T05:55:11.681Z,269.00
2022-09-12T05:56:11.660Z,270.00
2022-09-12T05:57:11.641Z,279.00
2022-09-12T05:58:11.646Z,298.00
2022-09-12T05:59:11.618Z,305.00
2022-09-12T06:00:11.625Z,300.00
2022-09-12T06:01:11.690Z,295.00
2022-09-12T06:02:11.658Z,291.00
2022-09-12T06:03:11.598Z,290.00
2022-09-12T06:04:11.588Z,300.00
2022-09-12T06:05:11.613Z,316.00
2022-09-12T06:06:11.576Z,327.00
2022-09-12T06:07:11.580Z,330.00
2022-09-12T06:08:11.657Z,335.00
2022-09-12T06:09:11.626Z,339.00
2022-09-12T06:10:11.617Z,345.00
2022-09-12T06:11:11.621Z,349.00
2022-09-12T06:12:11.580Z,353.00
2022-09-12T06:13:11.560Z,363.00
2022-09-12T06:14:11.575Z,373.00
2022-09-12T06:15:11.529Z,392.00
2022-09-12T06:16:11.548Z,404.00
2022-09-12T06:17:11.516Z,410.00
2022-09-12T06:18:11.508Z,410.00
2022-09-12T06:19:11.509Z,417.00
2022-09-12T06:20:11.501Z,417.00
2022-09-12T06:21:11.500Z,421.00
2022-09-12T06:22:11.476Z,430.00
2022-09-12T06:23:11.456Z,439.00
2022-09-12T06:24:11.485Z,454.00
2022-09-12T06:25:11.484Z,465.00
2022-09-12T06:26:11.445Z,486.00
2022-09-12T06:27:11.437Z,499.00
2022-09-12T06:28:11.431Z,518.00
2022-09-12T06:29:11.422Z,528.00
2022-09-12T06:30:11.413Z,525.00
2022-09-12T06:31:11.482Z,522.00
2022-09-12T06:32:11.398Z,527.00
2022-09-12T06:33:11.384Z,515.00
2022-09-12T06:34:11.404Z,512.00
2022-09-12T06:35:11.375Z,515.00
2022-09-12T06:36:12.550Z,516.00
2022-09-12T06:37:11.382Z,535.00
2022-09-12T06:38:11.363Z,539.00
2022-09-12T06:39:11.346Z,537.00
2022-09-12T06:40:11.388Z,546.00
2022-09-12T06:41:11.352Z,546.00
2022-09-12T06:42:11.328Z,555.00
2022-09-12T06:43:11.341Z,551.00
2022-09-12T06:44:11.343Z,546.00
2022-09-12T06:45:11.323Z,555.00
2022-09-12T06:46:11.365Z,576.00
2022-09-12T06:47:11.299Z,609.00
2022-09-12T06:48:11.290Z,640.00
2022-09-12T06:49:11.301Z,654.00
2022-09-12T06:50:11.309Z,667.00
2022-09-12T06:51:11.281Z,671.00
2022-09-12T06:52:11.270Z,675.00
2022-09-12T06:53:11.287Z,675.00
2022-09-12T06:54:11.255Z,675.00
2022-09-12T06:55:11.242Z,678.00
2022-09-12T06:56:11.235Z,669.00
2022-09-12T06:57:11.226Z,682.00
2022-09-12T06:58:11.227Z,671.00
2022-09-12T06:59:11.244Z,669.00
2022-09-12T07:00:11.203Z,670.00
2022-09-12T07:01:11.242Z,685.00
2022-09-12T07:02:11.235Z,700.00
2022-09-12T07:03:11.187Z,689.00
2022-09-12T07:04:11.188Z,675.00
2022-09-12T07:05:11.179Z,673.00
2022-09-12T07:06:11.170Z,688.00
2022-09-12T07:07:11.157Z,697.00
2022-09-12T07:08:11.152Z,709.00
2022-09-12T07:09:11.160Z,729.00
2022-09-12T07:10:11.144Z,769.00
2022-09-12T07:11:11.123Z,827.00
2022-09-12T07:12:11.139Z,850.00
2022-09-12T07:13:11.110Z,881.00
2022-09-12T07:14:11.098Z,888.00
2022-09-12T07:15:11.107Z,883.00
2022-09-12T07:16:12.295Z,912.00
2022-09-12T07:17:11.172Z,932.00
2022-09-12T07:18:11.072Z,915.00
2022-09-12T07:19:11.074Z,893.00
2022-09-12T07:20:11.074Z,881.00
2022-09-12T07:21:11.046Z,869.00
2022-09-12T07:22:11.058Z,837.00
2022-09-12T07:23:11.033Z,837.00
2022-09-12T07:24:11.204Z,846.00
2022-09-12T07:25:11.029Z,840.00
2022-09-12T07:26:11.011Z,863.00
2022-09-12T07:27:11.017Z,886.00
2022-09-12T07:28:10.999Z,888.00
2022-09-12T07:29:36.602Z,927.00
2022-09-12T07:30:11.987Z,951.00
2022-09-12T07:31:11.034Z,995.00
2022-09-12T07:32:10.991Z,1043.00
2022-09-12T07:33:10.951Z,1080.00
2022-09-12T07:34:10.952Z,1078.00
2022-09-12T07:35:10.953Z,1069.00
2022-09-12T07:36:10.945Z,1069.00
2022-09-12T07:37:10.950Z,1093.00
2022-09-12T07:38:11.038Z,1096.00
2022-09-12T07:39:10.906Z,1099.00
2022-09-12T07:40:10.967Z,1138.00
2022-09-12T07:41:10.896Z,1168.00
2022-09-12T07:42:10.884Z,1187.00
2022-09-12T07:43:10.880Z,1185.00
2022-09-12T07:44:10.894Z,1178.00
2022-09-12T07:45:10.869Z,1198.00
2022-09-12T07:46:10.880Z,1199.00
2022-09-12T07:47:10.848Z,1209.00
2022-09-12T07:48:10.840Z,1220.00
2022-09-12T07:49:10.827Z,1258.00
2022-09-12T07:50:10.833Z,1268.00
2022-09-12T07:51:10.827Z,1348.00
2022-09-12T07:52:10.802Z,1373.00
2022-09-12T07:53:10.797Z,1383.00
2022-09-12T07:54:10.793Z,1385.00
2022-09-12T07:55:10.799Z,1395.00
2022-09-12T07:56:10.785Z,1384.00
2022-09-12T07:57:10.754Z,1370.00
2022-09-12T07:58:10.777Z,1337.00
2022-09-12T07:59:10.766Z,1327.00
2022-09-12T08:00:10.735Z,1306.00
2022-09-12T08:01:10.763Z,1323.00
2022-09-12T08:02:16.071Z,1358.00
2022-09-12T08:03:11.733Z,1308.00
2022-09-12T08:04:10.731Z,1257.00
2022-09-12T08:05:10.705Z,1266.00
2022-09-12T08:06:10.695Z,1240.00
2022-09-12T08:07:10.695Z,1226.00
2022-09-12T08:08:10.691Z,1130.00
2022-09-12T08:09:10.678Z,1276.00
2022-09-12T08:10:10.683Z,1378.00
2022-09-12T08:11:10.658Z,1426.00
2022-09-12T08:12:10.683Z,1530.00
2022-09-12T08:13:10.960Z,1562.00
2022-09-12T08:14:10.636Z,1605.00
2022-09-12T08:15:10.621Z,1729.00
2022-09-12T08:16:10.667Z,1742.00
2022-09-12T08:17:10.616Z,1863.00
2022-09-12T08:18:10.646Z,1882.00
2022-09-12T08:19:10.591Z,1890.00
2022-09-12T08:20:10.598Z,1987.00
2022-09-12T08:21:10.582Z,2294.00
2022-09-12T08:22:10.570Z,2401.00
2022-09-12T08:23:10.559Z,2547.00
2022-09-12T08:24:10.577Z,2529.00
2022-09-12T08:25:10.536Z,2247.00
2022-09-12T08:26:10.566Z,1982.00
2022-09-12T08:27:10.532Z,1867.00
2022-09-12T08:28:10.514Z,1861.00
2022-09-12T08:29:10.530Z,1984.00
2022-09-12T08:30:10.506Z,2154.00
2022-09-12T08:31:10.547Z,2331.00
2022-09-12T08:32:10.529Z,2594.00
2022-09-12T08:33:10.482Z,2727.00
2022-09-12T08:34:10.480Z,2586.00
2022-09-12T08:35:10.490Z,2721.00
2022-09-12T08:36:10.489Z,2894.00
2022-09-12T08:37:10.456Z,3054.00
2022-09-12T08:38:10.456Z,2756.00
2022-09-12T08:39:10.434Z,2561.00
2022-09-12T08:40:10.509Z,2343.00
2022-09-12T08:41:10.422Z,2316.00
2022-09-12T08:43:10.422Z,2615.00
2022-09-12T08:44:10.400Z,3610.00
2022-09-12T08:45:10.395Z,5024.00
2022-09-12T08:46:10.451Z,4822.00
2022-09-12T08:47:10.397Z,5884.00
2022-09-12T08:48:10.372Z,6631.00
2022-09-12T08:49:10.358Z,7018.00
2022-09-12T08:50:10.371Z,6399.00
2022-09-12T08:51:10.345Z,6172.00
2022-09-12T08:52:10.363Z,5285.00
2022-09-12T08:53:10.336Z,4855.00
2022-09-12T08:54:10.325Z,5045.00
2022-09-12T08:55:10.317Z,5374.00
2022-09-12T08:56:10.303Z,5777.00
2022-09-12T08:57:10.344Z,6401.00
2022-09-12T08:58:10.284Z,6515.00
2022-09-12T08:59:10.274Z,6014.00
2022-09-12T09:00:10.276Z,6252.00
2022-09-12T09:01:10.345Z,5725.00
2022-09-12T09:02:10.315Z,5683.00
2022-09-12T09:03:10.269Z,6554.00
2022-09-12T09:04:10.245Z,5945.00
2022-09-12T09:05:10.243Z,6393.00
2022-09-12T09:06:10.224Z,6037.00
2022-09-12T09:07:10.215Z,6044.00
2022-09-12T09:08:10.217Z,5942.00
2022-09-12T09:09:10.211Z,5838.00
2022-09-12T09:10:10.194Z,5743.00
2022-09-12T09:11:10.197Z,5657.00
2022-09-12T09:12:10.172Z,5689.00
2022-09-12T09:13:10.164Z,5668.00
2022-09-12T09:14:10.183Z,5653.00
2022-09-12T09:15:10.184Z,5562.00
2022-09-12T09:16:10.197Z,5475.00
2022-09-12T09:17:10.129Z,5462.00
2022-09-12T09:18:10.120Z,5421.00
2022-09-12T09:19:10.109Z,5328.00
2022-09-12T09:20:10.107Z,5322.00
2022-09-12T09:21:10.116Z,5189.00
2022-09-12T09:22:10.081Z,5222.00
2022-09-12T09:23:10.070Z,5222.00
2022-09-12T09:24:10.082Z,5181.00
2022-09-12T09:25:10.059Z,5097.00
2022-09-12T09:26:10.061Z,5022.00
2022-09-12T09:27:29.940Z,5016.00
2022-09-12T09:28:11.052Z,5036.00
2022-09-12T09:29:10.035Z,5062.00
2022-09-12T09:30:10.025Z,4737.00
2022-09-12T09:31:17.121Z,4900.00
2022-09-12T09:32:10.005Z,4935.00
2022-09-12T09:33:10.009Z,4884.00
2022-09-12T09:34:09.986Z,4879.00
2022-09-12T09:35:09.976Z,4848.00
2022-09-12T09:36:09.971Z,4890.00
2022-09-12T09:37:09.963Z,4851.00
2022-09-12T09:38:09.955Z,4752.00
2022-09-12T09:39:09.970Z,4786.00
2022-09-12T09:40:09.972Z,4849.00
2022-09-12T09:41:09.927Z,4534.00
2022-09-12T09:42:09.921Z,4518.00
2022-09-12T09:43:09.925Z,4607.00
2022-09-12T09:44:09.912Z,4663.00
2022-09-12T09:45:09.900Z,4853.00
2022-09-12T09:46:09.963Z,4774.00
2022-09-12T09:47:09.895Z,4705.00
2022-09-12T09:48:09.869Z,4773.00
2022-09-12T09:49:09.885Z,4660.00
2022-09-12T09:50:09.859Z,4741.00
2022-09-12T09:51:09.860Z,4883.00
2022-09-12T09:52:09.871Z,4950.00
2022-09-12T09:53:09.826Z,4907.00
2022-09-12T09:54:09.835Z,4916.00
2022-09-12T09:55:09.805Z,4886.00
2022-09-12T09:56:09.823Z,4837.00
2022-09-12T09:57:09.784Z,4820.00
2022-09-12T09:58:09.797Z,4720.00
2022-09-12T09:59:09.822Z,4643.00
2022-09-12T10:00:09.785Z,4492.00
2022-09-12T10:01:09.822Z,4294.00
2022-09-12T10:02:09.818Z,4027.00
2022-09-12T10:03:13.394Z,3931.00
2022-09-12T10:04:09.744Z,3865.00
2022-09-12T10:05:09.762Z,3787.00
2022-09-12T10:06:09.751Z,3724.00
2022-09-12T10:07:09.722Z,3670.00
2022-09-12T10:08:09.714Z,3601.00
2022-09-12T10:09:09.707Z,3563.00
2022-09-12T10:10:09.718Z,3496.00
2022-09-12T10:11:09.683Z,3464.00
2022-09-12T10:12:09.689Z,3423.00
2022-09-12T10:13:09.676Z,3417.00
2022-09-12T10:14:09.677Z,3363.00
2022-09-12T10:15:09.659Z,3329.00
2022-09-12T10:16:09.802Z,3393.00
2022-09-12T10:17:09.646Z,3409.00
2022-09-12T10:18:09.647Z,3387.00
2022-09-12T10:19:09.632Z,3309.00
2022-09-12T10:20:20.935Z,3266.00
2022-09-12T10:21:10.636Z,3181.00
2022-09-12T10:22:09.633Z,3093.00
2022-09-12T10:23:09.612Z,3042.00
2022-09-12T10:24:09.604Z,2978.00
2022-09-12T10:25:09.592Z,2936.00
2022-09-12T10:26:09.592Z,2914.00
2022-09-12T10:27:09.608Z,2937.00
2022-09-12T10:28:09.569Z,2940.00
2022-09-12T10:29:09.561Z,3002.00
2022-09-12T10:30:09.554Z,3078.00
2022-09-12T10:31:09.572Z,3103.00
2022-09-12T10:32:09.535Z,3152.00
2022-09-12T10:33:09.546Z,3250.00
2022-09-12T10:34:09.526Z,3389.00
2022-09-12T10:35:09.524Z,3505.00
2022-09-12T10:36:09.511Z,3625.00
2022-09-12T10:37:09.500Z,3743.00
2022-09-12T10:38:09.499Z,3799.00
2022-09-12T10:39:09.505Z,3789.00
2022-09-12T10:40:09.577Z,3826.00
2022-09-12T10:41:09.471Z,3798.00
2022-09-12T10:42:09.457Z,3753.00
2022-09-12T10:43:09.479Z,3670.00
2022-09-12T10:44:09.475Z,3604.00
2022-09-12T10:45:09.439Z,3533.00
2022-09-12T10:46:09.487Z,3515.00
2022-09-12T10:47:09.439Z,3501.00
2022-09-12T10:48:09.418Z,3543.00
2022-09-12T10:49:09.414Z,3555.00
2022-09-12T10:50:09.445Z,3536.00
2022-09-12T10:51:09.407Z,3519.00
2022-09-12T10:52:09.424Z,3527.00
2022-09-12T10:53:09.387Z,3555.00
2022-09-12T10:54:09.382Z,3600.00
2022-09-12T10:55:09.391Z,3671.00
2022-09-12T10:56:09.361Z,3775.00
2022-09-12T10:57:09.357Z,3804.00
2022-09-12T10:58:09.348Z,3873.00
2022-09-12T10:59:09.337Z,3926.00
2022-09-12T11:00:09.354Z,3924.00
2022-09-12T11:01:09.393Z,3970.00
2022-09-12T11:02:09.394Z,3981.00
2022-09-12T11:03:09.309Z,3919.00
2022-09-12T11:04:09.304Z,3879.00
2022-09-12T11:05:09.296Z,3873.00
2022-09-12T11:06:09.303Z,3861.00
2022-09-12T11:07:09.287Z,3865.00
2022-09-12T11:08:09.278Z,3882.00
2022-09-12T11:09:09.274Z,3848.00
2022-09-12T11:10:09.262Z,3846.00
2022-09-12T11:11:09.270Z,3796.00
2022-09-12T11:12:09.254Z,3745.00
2022-09-12T11:13:09.232Z,3750.00
2022-09-12T11:14:09.227Z,3750.00
2022-09-12T11:15:09.235Z,3778.00
2022-09-12T11:16:09.275Z,3826.00
2022-09-12T11:17:13.271Z,3893.00
2022-09-12T11:18:09.207Z,3789.00
2022-09-12T11:19:09.213Z,3760.00
2022-09-12T11:20:09.202Z,3715.00
2022-09-12T11:21:09.206Z,3674.00
2022-09-12T11:22:09.197Z,3611.00
2022-09-12T11:23:09.175Z,3551.00
2022-09-12T11:24:09.178Z,3552.00
2022-09-12T11:25:09.152Z,3516.00
2022-09-12T11:26:09.155Z,3557.00
2022-09-12T11:27:09.174Z,3494.00
2022-09-12T11:28:09.159Z,3513.00
2022-09-12T11:29:09.129Z,3495.00
2022-09-12T11:30:09.143Z,3493.00
2022-09-12T11:31:09.148Z,3535.00
2022-09-12T11:32:09.108Z,3563.00
2022-09-12T11:33:09.099Z,3546.00
2022-09-12T11:34:09.121Z,3525.00
2022-09-12T11:35:09.496Z,3515.00
2022-09-12T11:36:09.074Z,3496.00
2022-09-12T11:37:11.013Z,3458.00
2022-09-12T11:38:09.059Z,3355.00
2022-09-12T11:39:09.051Z,3298.00
2022-09-12T11:40:09.100Z,3204.00
2022-09-12T11:41:09.044Z,3134.00
2022-09-12T11:42:09.028Z,3144.00
2022-09-12T11:43:09.031Z,3083.00
2022-09-12T11:44:09.026Z,3123.00
2022-09-12T11:45:09.026Z,3090.00
2022-09-12T11:46:09.043Z,3089.00
2022-09-12T11:47:08.994Z,3064.00
2022-09-12T11:48:08.989Z,3074.00
2022-09-12T11:49:08.990Z,3049.00
2022-09-12T11:50:09.014Z,3050.00
2022-09-12T11:51:08.972Z,2968.00
2022-09-12T11:52:08.966Z,2929.00
2022-09-12T11:53:08.953Z,2905.00
2022-09-12T11:54:08.961Z,2796.00
2022-09-12T11:55:08.958Z,2774.00
2022-09-12T11:56:08.940Z,2750.00
2022-09-12T11:57:08.924Z,2740.00
2022-09-12T11:58:08.920Z,2770.00
2022-09-12T11:59:08.908Z,2777.00
2022-09-12T12:00:08.941Z,2782.00
2022-09-12T12:01:08.891Z,2775.00
2022-09-12T12:02:08.944Z,2721.00
2022-09-12T12:03:08.930Z,2630.00
2022-09-12T12:04:08.883Z,2599.00
2022-09-12T12:05:08.884Z,2528.00
2022-09-12T12:06:08.885Z,2499.00
2022-09-12T12:07:08.860Z,2491.00
2022-09-12T12:08:08.850Z,2458.00
2022-09-12T12:09:08.840Z,2449.00
2022-09-12T12:10:08.865Z,2432.00
2022-09-12T12:11:08.821Z,2378.00
2022-09-12T12:12:08.819Z,2364.00
2022-09-12T12:13:13.853Z,2355.00
2022-09-12T12:14:09.812Z,2363.00
2022-09-12T12:15:08.805Z,2354.00
2022-09-12T12:16:08.841Z,2381.00
2022-09-12T12:17:08.782Z,2400.00
2022-09-12T12:18:08.785Z,2418.00
2022-09-12T12:19:10.685Z,2429.00
2022-09-12T12:20:08.929Z,2432.00
2022-09-12T12:21:08.770Z,2475.00
2022-09-12T12:22:08.765Z,2552.00
2022-09-12T12:23:08.761Z,2758.00
2022-09-12T12:24:08.740Z,2815.00
2022-09-12T12:25:08.728Z,2769.00
2022-09-12T12:26:08.728Z,2838.00
2022-09-12T12:27:08.735Z,2875.00
2022-09-12T12:28:08.726Z,2835.00
2022-09-12T12:29:08.705Z,2710.00
2022-09-12T12:30:08.722Z,2681.00
2022-09-12T12:31:08.757Z,2666.00
2022-09-12T12:32:08.702Z,2601.00
2022-09-12T12:33:08.671Z,2560.00
2022-09-12T12:34:08.696Z,2475.00
2022-09-12T12:35:08.675Z,2474.00
2022-09-12T12:36:08.645Z,2582.00
2022-09-12T12:37:08.657Z,2902.00
2022-09-12T12:38:08.633Z,2979.00